Dzizak, Uzbekistan
Current Conditions -  °F | °C
As of 5:00 AM on Saturday 25 Oct 2014 (Local Time) from UTSS Reporting Station
Overcast Overcast  
Wind Chill: 55°   Ceiling: 13000
Heat Index: 55°   Visibility: 6mi
Dew Point: 48°   Wind: 2mph
Humidity: 77%   Direction: NA
Pressure: 29.97"   Gusts: NA
Location:  40.12°N, 67.83°E
Report Text: UTSS 250000Z VRB01MPS 9999 OVC130 13/09 Q1015 R88/CLRD70 NOSIG
Loading
Personal Weather Stations






























Interactive Weather Map
Tropical Storm Tracking
New forecast layout! Learn more

10-Day Weather Forecast

Advertisements
Track Severe Weather on mobile